createdAt,value
2019-04-21T00:02:06.450Z,49.20
2019-04-21T00:04:53.904Z,49.20
2019-04-21T00:07:31.618Z,49.30
2019-04-21T00:10:05.796Z,49.70
2019-04-21T00:12:34.487Z,49.20
2019-04-21T00:15:02.225Z,48.80
2019-04-21T00:17:24.879Z,49.10
2019-04-21T00:20:11.432Z,48.90
2019-04-21T00:22:44.263Z,48.80
2019-04-21T00:25:18.111Z,48.60
2019-04-21T00:27:52.769Z,48.60
2019-04-21T00:30:32.935Z,48.80
2019-04-21T00:32:54.117Z,49.00
2019-04-21T00:35:19.615Z,49.70
2019-04-21T00:38:08.279Z,50.50
2019-04-21T00:40:41.507Z,49.20
2019-04-21T00:43:07.807Z,49.00
2019-04-21T00:45:39.211Z,49.40
2019-04-21T00:48:25.777Z,49.70
2019-04-21T00:51:12.326Z,49.80
2019-04-21T00:53:44.143Z,50.00
2019-04-21T00:56:11.686Z,49.30
2019-04-21T00:58:39.583Z,49.10
2019-04-21T01:01:12.558Z,49.10
2019-04-21T01:03:47.506Z,48.90
2019-04-21T01:06:22.745Z,48.90
2019-04-21T01:08:48.928Z,48.90
2019-04-21T01:11:29.839Z,48.80
2019-04-21T01:13:58.276Z,48.90
2019-04-21T01:16:33.479Z,48.80
2019-04-21T01:19:05.310Z,49.20
2019-04-21T01:21:16.462Z,49.10
2019-04-21T01:23:48.626Z,49.20
2019-04-21T01:26:32.873Z,49.10
2019-04-21T01:29:13.273Z,49.40
2019-04-21T01:31:42.294Z,49.40
2019-04-21T01:34:27.455Z,49.60
2019-04-21T01:36:46.152Z,49.50
2019-04-21T01:39:29.449Z,49.70
2019-04-21T01:41:57.343Z,49.60
2019-04-21T01:44:37.639Z,49.80
2019-04-21T01:46:58.630Z,50.50
2019-04-21T01:49:33.335Z,50.60
2019-04-21T01:52:34.408Z,50.90
2019-04-21T01:55:06.253Z,50.00
2019-04-21T01:58:02.860Z,49.60
2019-04-21T02:00:58.280Z,49.40
2019-04-21T02:08:44.925Z,50.10
2019-04-21T02:11:16.999Z,50.40
2019-04-21T02:13:57.234Z,50.70
2019-04-21T02:16:23.883Z,51.00
2019-04-21T02:18:55.229Z,52.10
2019-04-21T02:21:22.134Z,51.90
2019-04-21T02:24:07.146Z,51.90
2019-04-21T02:26:53.872Z,51.80
2019-04-21T02:29:19.581Z,51.70
2019-04-21T02:32:00.082Z,51.70
2019-04-21T02:34:27.395Z,51.80
2019-04-21T02:37:36.759Z,51.90
2019-04-21T02:39:43.640Z,52.30
2019-04-21T02:42:20.044Z,52.20
2019-04-21T02:44:43.011Z,52.90
2019-04-21T02:47:16.720Z,52.90
2019-04-21T02:49:53.567Z,53.30
2019-04-21T02:57:22.903Z,54.50
2019-04-21T03:00:06.433Z,53.90
2019-04-21T03:02:54.598Z,53.30
2019-04-21T03:06:02.647Z,52.80
2019-04-21T03:11:09.077Z,53.00
2019-04-21T03:13:50.747Z,52.70
2019-04-21T03:18:48.539Z,52.60
2019-04-21T03:23:56.214Z,53.80
2019-04-21T03:29:03.325Z,54.10
2019-04-21T03:31:49.663Z,53.80
2019-04-21T03:39:03.052Z,53.90
2019-04-21T03:41:48.821Z,53.90
2019-04-21T03:44:16.849Z,53.80
2019-04-21T03:47:03.422Z,53.70
2019-04-21T03:49:28.964Z,53.40
2019-04-21T03:52:09.066Z,53.30
2019-04-21T03:54:32.532Z,53.30
2019-04-21T03:57:21.810Z,53.90
2019-04-21T03:59:40.832Z,53.80
2019-04-21T04:02:28.355Z,53.60
2019-04-21T04:05:03.385Z,53.30
2019-04-21T04:12:48.718Z,52.60
2019-04-21T04:15:20.508Z,53.00
2019-04-21T04:17:47.721Z,53.30
2019-04-21T04:23:08.057Z,54.20
2019-04-21T04:25:27.340Z,54.90
2019-04-21T04:28:09.858Z,54.90
2019-04-21T04:30:39.535Z,54.70
2019-04-21T04:33:20.765Z,53.40
2019-04-21T04:35:56.086Z,53.50
2019-04-21T04:38:23.389Z,53.70
2019-04-21T04:46:07.166Z,52.70
2019-04-21T04:48:35.364Z,53.60
2019-04-21T04:51:33.387Z,53.20
2019-04-21T04:53:44.281Z,53.20
2019-04-21T04:56:25.490Z,53.00
2019-04-21T04:59:18.598Z,53.50
2019-04-21T05:01:34.955Z,54.20
2019-04-21T05:04:02.579Z,54.30
2019-04-21T05:09:07.820Z,54.60
2019-04-21T05:11:44.523Z,54.70
2019-04-21T05:24:07.496Z,53.70
2019-04-21T05:26:42.271Z,53.80
2019-04-21T05:29:11.003Z,54.20
2019-04-21T05:32:00.487Z,53.50
2019-04-21T05:34:36.021Z,53.40
2019-04-21T05:37:28.918Z,53.10
2019-04-21T05:40:10.639Z,53.60
2019-04-21T05:42:39.918Z,53.70
2019-04-21T05:45:38.192Z,53.60
2019-04-21T05:48:13.245Z,54.00
2019-04-21T05:50:32.554Z,53.90
2019-04-21T05:53:17.627Z,53.60
2019-04-21T05:55:50.282Z,53.50
2019-04-21T05:58:14.629Z,53.30
2019-04-21T06:03:30.626Z,53.10
2019-04-21T06:06:10.773Z,53.10
2019-04-21T06:08:38.696Z,53.70
2019-04-21T06:11:07.567Z,53.60
2019-04-21T06:13:48.164Z,53.40
2019-04-21T06:16:13.995Z,53.10
2019-04-21T06:18:52.956Z,52.70
2019-04-21T06:21:18.926Z,53.10
2019-04-21T06:23:50.001Z,53.10
2019-04-21T06:29:02.779Z,52.90
2019-04-21T06:34:19.868Z,53.00
2019-04-21T06:37:01.446Z,53.00
2019-04-21T06:41:59.820Z,51.70
2019-04-21T06:44:33.713Z,51.90
2019-04-21T06:47:13.892Z,52.20
2019-04-21T06:49:40.119Z,52.60
2019-04-21T06:52:19.385Z,52.50
2019-04-21T06:54:50.785Z,52.60
2019-04-21T06:57:16.582Z,52.30
2019-04-21T06:59:51.053Z,52.90
2019-04-21T07:05:00.538Z,52.60
2019-04-21T07:07:33.851Z,52.50
2019-04-21T07:10:10.284Z,52.70
2019-04-21T07:12:34.302Z,51.50
2019-04-21T07:15:13.507Z,52.20
2019-04-21T07:17:40.285Z,52.10
2019-04-21T07:20:18.844Z,52.10
2019-04-21T07:22:50.558Z,52.10
2019-04-21T07:25:22.073Z,52.30
2019-04-21T07:27:58.043Z,52.00
2019-04-21T07:30:37.764Z,52.00
2019-04-21T07:33:24.007Z,51.80
2019-04-21T07:35:37.668Z,52.30
2019-04-21T07:38:12.071Z,52.30
2019-04-21T07:40:41.699Z,51.90
2019-04-21T07:43:16.669Z,52.00
2019-04-21T07:45:55.460Z,52.60
2019-04-21T07:48:37.773Z,51.70
2019-04-21T07:51:25.435Z,52.20
2019-04-21T07:54:13.348Z,52.10
2019-04-21T07:56:19.931Z,52.00
2019-04-21T07:59:02.082Z,52.40
2019-04-21T08:01:40.124Z,52.20
2019-04-21T08:04:33.218Z,51.80
2019-04-21T08:06:46.064Z,52.20
2019-04-21T08:09:18.312Z,52.20
2019-04-21T08:11:56.160Z,51.70
2019-04-21T08:14:31.279Z,52.00
2019-04-21T08:17:03.221Z,52.10
2019-04-21T08:19:38.306Z,52.10
2019-04-21T08:22:11.449Z,52.30
2019-04-21T08:24:47.015Z,52.20
2019-04-21T08:27:23.518Z,52.30
2019-04-21T08:29:51.633Z,52.40
2019-04-21T08:32:31.683Z,51.50
2019-04-21T08:35:14.718Z,51.70
2019-04-21T08:37:32.144Z,50.50
2019-04-21T08:42:41.542Z,51.20
2019-04-21T08:45:15.130Z,51.20
2019-04-21T08:47:45.764Z,51.40
2019-04-21T08:50:15.282Z,50.00
2019-04-21T08:52:56.168Z,50.80
2019-04-21T08:55:49.015Z,50.90
2019-04-21T08:58:52.866Z,50.90
2019-04-21T09:01:50.355Z,51.60
2019-04-21T09:04:18.511Z,50.90
2019-04-21T09:09:31.961Z,51.10
2019-04-21T09:12:01.632Z,51.20
2019-04-21T09:14:37.083Z,51.40
2019-04-21T09:17:00.094Z,50.60
2019-04-21T09:22:13.302Z,51.10
2019-04-21T09:24:46.858Z,50.90
2019-04-21T09:27:18.390Z,50.90
2019-04-21T09:29:39.289Z,50.90
2019-04-21T09:32:14.613Z,51.10
2019-04-21T09:34:43.482Z,49.80
2019-04-21T09:37:24.010Z,50.50
2019-04-21T09:39:48.833Z,50.60
2019-04-21T09:42:19.715Z,49.70
2019-04-21T09:44:55.238Z,49.10
2019-04-21T09:47:33.585Z,49.10
2019-04-21T09:49:56.296Z,48.40
2019-04-21T09:52:38.833Z,49.10
2019-04-21T09:55:07.054Z,47.50
2019-04-21T09:57:43.313Z,47.80
2019-04-21T10:00:15.121Z,46.90
2019-04-21T10:02:53.467Z,47.40
2019-04-21T10:05:17.065Z,47.70
2019-04-21T10:07:48.925Z,47.30
2019-04-21T10:10:21.367Z,47.30
2019-04-21T10:12:53.897Z,47.20
2019-04-21T10:15:27.845Z,47.50
2019-04-21T10:18:00.558Z,47.30
2019-04-21T10:20:32.915Z,47.80
2019-04-21T10:23:05.039Z,47.90
2019-04-21T10:25:36.826Z,46.50
2019-04-21T10:28:08.194Z,46.50
2019-04-21T10:30:40.751Z,46.90
2019-04-21T10:33:12.524Z,44.50
2019-04-21T10:35:43.893Z,43.90
2019-04-21T10:38:26.076Z,44.70
2019-04-21T10:40:49.627Z,43.40
2019-04-21T10:43:23.694Z,44.60
2019-04-21T10:45:55.026Z,42.00
2019-04-21T10:48:26.282Z,44.10
2019-04-21T10:50:57.530Z,44.50
2019-04-21T10:53:32.081Z,43.50
2019-04-21T10:56:17.572Z,43.10
2019-04-21T10:58:40.474Z,43.40
2019-04-21T11:01:14.407Z,42.60
2019-04-21T11:04:00.505Z,41.90
2019-04-21T11:06:32.687Z,42.50
2019-04-21T11:09:07.284Z,42.30
2019-04-21T11:11:40.038Z,43.00
2019-04-21T11:14:11.868Z,41.70
2019-04-21T11:16:45.842Z,42.00
2019-04-21T11:19:15.923Z,43.10
2019-04-21T11:21:47.121Z,43.10
2019-04-21T11:24:18.520Z,43.40
2019-04-21T11:26:51.981Z,41.80
2019-04-21T11:29:26.136Z,42.50
2019-04-21T11:31:57.079Z,41.40
2019-04-21T11:34:29.261Z,39.80
2019-04-21T11:37:01.845Z,41.00
2019-04-21T11:39:42.087Z,41.40
2019-04-21T11:42:15.626Z,41.10
2019-04-21T11:44:49.425Z,41.50
2019-04-21T11:47:26.352Z,41.60
2019-04-21T11:49:58.989Z,42.50
2019-04-21T11:52:31.042Z,40.40
2019-04-21T11:55:04.658Z,39.20
2019-04-21T11:57:41.598Z,41.30
2019-04-21T12:00:11.386Z,41.80
2019-04-21T12:02:43.702Z,40.90
2019-04-21T12:05:15.199Z,41.80
2019-04-21T12:07:47.211Z,42.60
2019-04-21T12:10:19.631Z,43.70
2019-04-21T12:12:51.121Z,43.90
2019-04-21T12:15:22.997Z,44.10
2019-04-21T12:17:54.383Z,44.50
2019-04-21T12:20:26.886Z,44.80
2019-04-21T12:22:58.938Z,44.40
2019-04-21T12:25:34.716Z,44.00
2019-04-21T12:28:06.026Z,44.20
2019-04-21T12:30:37.824Z,44.00
2019-04-21T12:33:16.186Z,44.30
2019-04-21T12:35:48.170Z,43.70
2019-04-21T12:38:30.104Z,43.60
2019-04-21T12:40:52.792Z,44.10
2019-04-21T12:43:24.587Z,44.50
2019-04-21T12:45:56.241Z,45.00
2019-04-21T12:48:29.627Z,44.00
2019-04-21T12:51:01.895Z,44.40
2019-04-21T12:53:34.159Z,44.60
2019-04-21T12:56:07.444Z,44.50
2019-04-21T12:58:39.615Z,44.30
2019-04-21T13:01:10.990Z,44.60
2019-04-21T13:03:43.783Z,44.70
2019-04-21T13:06:16.215Z,45.90
2019-04-21T13:08:54.534Z,45.80
2019-04-21T13:11:21.746Z,45.60
2019-04-21T13:13:53.658Z,45.30
2019-04-21T13:16:25.606Z,42.20
2019-04-21T13:18:57.618Z,44.00
2019-04-21T13:21:30.069Z,44.10
2019-04-21T13:24:01.375Z,44.60
2019-04-21T13:26:42.910Z,44.60
2019-04-21T13:29:06.471Z,44.90
2019-04-21T13:31:38.408Z,44.60
2019-04-21T13:34:10.602Z,45.60
2019-04-21T13:36:43.648Z,45.80
2019-04-21T13:39:55.264Z,45.80
2019-04-21T13:42:18.418Z,46.50
2019-04-21T13:44:41.565Z,45.80
2019-04-21T13:47:14.441Z,45.80
2019-04-21T13:49:47.521Z,45.10
2019-04-21T13:52:20.499Z,45.90
2019-04-21T13:54:52.056Z,45.80
2019-04-21T13:57:23.343Z,42.70
2019-04-21T13:59:55.135Z,43.70
2019-04-21T14:02:26.885Z,44.30
2019-04-21T14:04:59.143Z,45.30
2019-04-21T14:07:30.531Z,45.00
2019-04-21T14:10:06.593Z,45.20
2019-04-21T14:12:36.088Z,44.70
2019-04-21T14:15:08.406Z,44.70
2019-04-21T14:17:40.175Z,43.10
2019-04-21T14:20:13.215Z,44.40
2019-04-21T14:22:44.729Z,44.20
2019-04-21T14:25:17.473Z,42.40
2019-04-21T14:27:51.912Z,44.20
2019-04-21T14:30:24.467Z,44.60
2019-04-21T14:32:56.192Z,45.50
2019-04-21T14:35:27.474Z,44.80
2019-04-21T14:38:00.514Z,46.00
2019-04-21T14:40:34.962Z,45.30
2019-04-21T14:43:04.257Z,43.40
2019-04-21T14:45:45.144Z,44.60
2019-04-21T14:48:39.214Z,43.80
2019-04-21T14:51:23.054Z,44.30
2019-04-21T14:54:20.551Z,44.70
2019-04-21T14:56:53.429Z,44.80
2019-04-21T14:59:31.160Z,44.90
2019-04-21T15:02:03.932Z,44.60
2019-04-21T15:04:35.915Z,44.90
2019-04-21T15:07:15.011Z,44.80
2019-04-21T15:09:58.794Z,44.80
2019-04-21T15:12:21.378Z,44.70
2019-04-21T15:14:56.014Z,45.50
2019-04-21T15:17:35.807Z,45.40
2019-04-21T15:20:12.219Z,45.20
2019-04-21T15:22:42.022Z,45.40
2019-04-21T15:25:14.201Z,45.40
2019-04-21T15:27:46.650Z,45.70
2019-04-21T15:30:20.643Z,45.50
2019-04-21T15:32:52.787Z,45.70
2019-04-21T15:35:25.296Z,45.40
2019-04-21T15:37:58.038Z,45.50
2019-04-21T15:40:40.059Z,45.40
2019-04-21T15:43:02.469Z,45.60
2019-04-21T15:45:34.938Z,45.90
2019-04-21T15:48:08.206Z,45.90
2019-04-21T15:50:41.812Z,46.20
2019-04-21T15:53:15.978Z,46.40
2019-04-21T15:56:10.999Z,46.80
2019-04-21T15:59:08.388Z,46.40
2019-04-21T16:01:52.832Z,46.20
2019-04-21T16:04:25.091Z,46.40
2019-04-21T16:06:57.452Z,46.20
2019-04-21T16:09:31.218Z,46.20
2019-04-21T16:12:03.983Z,46.00
2019-04-21T16:14:36.474Z,46.30
2019-04-21T16:17:09.548Z,46.00
2019-04-21T16:19:41.687Z,46.40
2019-04-21T16:22:14.774Z,46.80
2019-04-21T16:24:47.709Z,46.80
2019-04-21T16:27:19.692Z,46.70
2019-04-21T16:29:52.420Z,46.60
2019-04-21T16:32:25.882Z,46.10
2019-04-21T16:35:03.273Z,46.30
2019-04-21T16:37:31.860Z,46.70
2019-04-21T16:40:03.729Z,46.70
2019-04-21T16:42:36.272Z,46.90
2019-04-21T16:45:10.801Z,46.30
2019-04-21T16:47:42.462Z,46.10
2019-04-21T16:50:15.669Z,46.30
2019-04-21T16:52:54.480Z,46.60
2019-04-21T16:55:32.947Z,46.70
2019-04-21T16:58:25.691Z,46.90
2019-04-21T17:01:08.578Z,47.30
2019-04-21T17:03:36.745Z,46.80
2019-04-21T17:06:11.049Z,46.60
2019-04-21T17:08:45.058Z,46.50
2019-04-21T17:11:25.927Z,45.20
2019-04-21T17:13:54.141Z,46.40
2019-04-21T17:16:51.495Z,46.90
2019-04-21T17:19:11.356Z,47.00
2019-04-21T17:21:34.209Z,47.20
2019-04-21T17:24:06.467Z,47.30
2019-04-21T17:26:41.144Z,47.50
2019-04-21T17:29:12.336Z,47.50
2019-04-21T17:31:45.674Z,47.40
2019-04-21T17:34:21.787Z,47.40
2019-04-21T17:36:50.942Z,47.50
2019-04-21T17:39:22.873Z,47.90
2019-04-21T17:42:05.669Z,47.90
2019-04-21T17:44:27.730Z,48.10
2019-04-21T17:47:03.892Z,48.20
2019-04-21T17:49:32.932Z,48.30
2019-04-21T17:52:42.857Z,48.40
2019-04-21T17:55:25.457Z,48.40
2019-04-21T17:58:09.705Z,48.80
2019-04-21T18:01:05.294Z,48.60
2019-04-21T18:03:29.584Z,48.50
2019-04-21T18:05:50.349Z,48.70
2019-04-21T18:08:29.450Z,48.60
2019-04-21T18:10:54.345Z,48.80
2019-04-21T18:13:22.674Z,48.90
2019-04-21T18:16:03.741Z,49.10
2019-04-21T18:18:26.542Z,48.90
2019-04-21T18:21:04.853Z,48.70
2019-04-21T18:23:57.421Z,48.20
2019-04-21T18:26:35.023Z,45.70
2019-04-21T18:28:59.106Z,44.10
2019-04-21T18:31:33.806Z,42.80
2019-04-21T18:34:30.571Z,42.30
2019-04-21T18:37:12.299Z,44.10
2019-04-21T18:39:57.558Z,45.00
2019-04-21T18:42:42.218Z,42.40
2019-04-21T18:45:57.203Z,44.00
2019-04-21T18:48:22.186Z,44.80
2019-04-21T18:51:20.228Z,44.80
2019-04-21T18:54:17.384Z,43.90
2019-04-21T18:56:29.704Z,45.20
2019-04-21T18:59:02.472Z,44.50
2019-04-21T19:01:36.645Z,45.60
2019-04-21T19:04:14.353Z,43.10
2019-04-21T19:07:03.071Z,45.40
2019-04-21T19:09:57.300Z,45.90
2019-04-21T19:12:19.540Z,46.20
2019-04-21T19:14:40.151Z,47.20
2019-04-21T19:19:54.364Z,47.60
2019-04-21T19:22:20.426Z,45.50
2019-04-21T19:24:59.447Z,45.90
2019-04-21T19:27:27.242Z,46.00
2019-04-21T19:30:21.697Z,46.40
2019-04-21T19:32:33.484Z,46.70
2019-04-21T19:34:57.075Z,44.70
2019-04-21T19:37:27.860Z,44.70
2019-04-21T19:40:07.957Z,43.10
2019-04-21T19:42:39.796Z,44.50
2019-04-21T19:45:17.648Z,42.50
2019-04-21T19:47:55.597Z,42.40
2019-04-21T19:50:32.290Z,42.60
2019-04-21T19:52:52.000Z,43.10
2019-04-21T19:55:16.140Z,41.80
2019-04-21T19:57:49.258Z,42.80
2019-04-21T20:00:22.404Z,42.80
2019-04-21T20:02:56.573Z,43.90
2019-04-21T20:05:39.048Z,43.00
2019-04-21T20:08:23.630Z,43.70
2019-04-21T20:11:04.043Z,44.60
2019-04-21T20:13:46.659Z,44.50
2019-04-21T20:18:32.505Z,45.40
2019-04-21T20:20:58.351Z,43.10
2019-04-21T20:23:32.756Z,43.70
2019-04-21T20:26:10.096Z,45.20
2019-04-21T20:28:54.437Z,45.50
2019-04-21T20:31:31.530Z,46.70
2019-04-21T20:34:11.311Z,45.60
2019-04-21T20:36:41.810Z,43.30
2019-04-21T20:39:05.649Z,42.10
2019-04-21T20:41:44.007Z,41.90
2019-04-21T20:44:23.062Z,40.50
2019-04-21T20:46:54.501Z,39.90
2019-04-21T20:49:21.739Z,39.60
2019-04-21T20:52:10.384Z,39.50
2019-04-21T20:54:40.781Z,38.90
2019-04-21T21:01:20.198Z,38.60
2019-04-21T21:03:35.239Z,35.90
2019-04-21T21:06:08.275Z,37.00
2019-04-21T21:08:45.373Z,37.10
2019-04-21T21:11:21.292Z,37.00
2019-04-21T21:13:53.674Z,37.20
2019-04-21T21:16:29.213Z,37.50
2019-04-21T21:19:11.633Z,38.20
2019-04-21T21:21:32.492Z,38.30
2019-04-21T21:24:07.077Z,38.50
2019-04-21T21:26:44.098Z,38.90
2019-04-21T21:29:06.677Z,39.10
2019-04-21T21:31:47.688Z,39.00
2019-04-21T21:34:27.539Z,39.10
2019-04-21T21:36:54.007Z,39.30
2019-04-21T21:39:31.840Z,39.50
2019-04-21T21:41:49.793Z,39.70
2019-04-21T21:44:21.211Z,39.70
2019-04-21T21:47:00.560Z,39.50
2019-04-21T21:49:39.409Z,39.40
2019-04-21T21:52:06.932Z,39.40
2019-04-21T21:54:31.854Z,39.40
2019-04-21T21:57:04.749Z,39.00
2019-04-21T21:59:39.669Z,38.80
2019-04-21T22:02:17.125Z,38.80
2019-04-21T22:04:54.684Z,39.20
2019-04-21T22:07:22.547Z,39.70
2019-04-21T22:09:50.545Z,39.80
2019-04-21T22:12:23.845Z,40.10
2019-04-21T22:14:57.447Z,39.70
2019-04-21T22:17:44.646Z,39.80
2019-04-21T22:20:21.499Z,40.40
2019-04-21T22:22:44.809Z,40.80
2019-04-21T22:25:15.333Z,40.80
2019-04-21T22:27:43.378Z,41.20
2019-04-21T22:30:24.746Z,41.40
2019-04-21T22:32:55.410Z,41.50
2019-04-21T22:35:30.049Z,41.50
2019-04-21T22:38:13.985Z,41.40
2019-04-21T22:40:47.171Z,41.30
2019-04-21T22:43:11.693Z,41.50
2019-04-21T22:45:35.649Z,41.70
2019-04-21T22:48:14.324Z,42.10
2019-04-21T22:50:42.362Z,42.50
2019-04-21T22:53:14.321Z,42.80
2019-04-21T22:55:49.540Z,42.70
2019-04-21T22:58:25.712Z,42.90
2019-04-21T23:00:56.415Z,43.10
2019-04-21T23:03:25.199Z,43.10
2019-04-21T23:06:11.788Z,43.00
2019-04-21T23:08:41.736Z,43.20
2019-04-21T23:11:16.103Z,43.40
2019-04-21T23:14:10.320Z,43.50
2019-04-21T23:16:41.849Z,43.80
2019-04-21T23:19:30.822Z,43.90
2019-04-21T23:22:02.416Z,45.20
2019-04-21T23:24:40.383Z,44.80
2019-04-21T23:27:02.649Z,44.70
2019-04-21T23:29:47.880Z,45.30
2019-04-21T23:32:13.147Z,45.10
2019-04-21T23:34:36.540Z,45.60
2019-04-21T23:37:10.570Z,45.50
2019-04-21T23:39:37.558Z,45.70
2019-04-21T23:42:09.212Z,45.80
2019-04-21T23:44:45.914Z,46.00
2019-04-21T23:47:29.245Z,46.20
2019-04-21T23:49:57.650Z,46.40
2019-04-21T23:52:19.872Z,46.30
2019-04-21T23:54:53.532Z,46.40
2019-04-21T23:57:32.595Z,46.10
